Airfield :







YOU CAN JOIN US ON...

 
LOGIN :

Register | Disclaimer

   EN    FR    IT 

 









Legend :    VFR   Marginal VFR   IFR   Intensive IFR   Very Intensive IFR
Visi :
Ceiling :
>= 8 km
>= 3000ft
5 to 8 km
1000 to 3000 ft
1500m to 5 km
500 to 1000 ft
800 to 1500m
200 to 500 ft
< 800m
< 200 ft
Symbols :   Thunderstorms  Fog  Heavy snow  Heavy precipitations  Wind > 20 kt






- Airport Elevation : 48 ft
- IATA code : REK


BIRK - Reykjavik

CURRENT METAR :
  • 230700Z 21011KT 7000 -DZ BR SCT010 BKN021 10/09 Q1005

EXPIRED METARs :
  • 230600Z 21013KT 9999 FEW011 BKN026 10/09 Q1005
  • 230500Z 20009KT 9999 FEW010 BKN024 10/08 Q1004
  • 230400Z 22011KT 9999 FEW010 OVC030 10/09 Q1004
  • 230300Z 22012KT 9999 FEW012 BKN039 10/09 Q1004

TAF TAF BIRK
Valid from the 23 at 06:00 until the 24 at 06:00 UTC


230442Z 2306/2406 20010KT 9999 SCT015 BKN025 TX12/2318Z TN10/2306Z
TEMPO 2306/2312 4000 -RADZ BKN011
TEMPO 2312/2406 2500 RADZ BR BKN006



MET'MAP, your aeronautical weather chart ! - Copyright ORBIFLY December 2007 - Disclaimer

ORBIFLY MET'MAP TEAM :

Programming & Development : Alexandra Zaïnal
Original concept : Baudouin d'Aumeries
Technical & hardware support : Manuel Goepfert
Assistance : Marc-Olivier Méhu




SOURCES & CREDITS :

   NOAA